sensor_id;sensor_type;location;lat;lon;timestamp;temperature;humidity
51215;DHT22;63849;47.546;19.254;2023-11-21T00:00:14;6.30;83.10
51215;DHT22;63849;47.546;19.254;2023-11-21T00:02:41;6.40;83.30
51215;DHT22;63849;47.546;19.254;2023-11-21T00:05:11;6.40;82.90
51215;DHT22;63849;47.546;19.254;2023-11-21T00:07:40;6.40;82.90
51215;DHT22;63849;47.546;19.254;2023-11-21T00:10:06;6.40;82.50
51215;DHT22;63849;47.546;19.254;2023-11-21T00:12:34;6.40;82.50
51215;DHT22;63849;47.546;19.254;2023-11-21T00:15:00;6.40;82.40
51215;DHT22;63849;47.546;19.254;2023-11-21T00:17:27;6.30;82.50
51215;DHT22;63849;47.546;19.254;2023-11-21T00:19:53;6.30;83.10
51215;DHT22;63849;47.546;19.254;2023-11-21T00:22:19;6.30;83.10
51215;DHT22;63849;47.546;19.254;2023-11-21T00:24:45;6.30;83.20
51215;DHT22;63849;47.546;19.254;2023-11-21T00:27:11;6.40;83.10
51215;DHT22;63849;47.546;19.254;2023-11-21T00:29:37;6.30;83.20
51215;DHT22;63849;47.546;19.254;2023-11-21T00:32:05;6.30;83.10
51215;DHT22;63849;47.546;19.254;2023-11-21T00:34:31;6.30;83.10
51215;DHT22;63849;47.546;19.254;2023-11-21T00:36:58;6.40;82.90
51215;DHT22;63849;47.546;19.254;2023-11-21T00:39:23;6.30;82.80
51215;DHT22;63849;47.546;19.254;2023-11-21T00:41:50;6.30;82.70
51215;DHT22;63849;47.546;19.254;2023-11-21T00:44:16;6.20;83.20
51215;DHT22;63849;47.546;19.254;2023-11-21T00:46:42;6.20;82.50
51215;DHT22;63849;47.546;19.254;2023-11-21T00:49:08;6.10;82.90
51215;DHT22;63849;47.546;19.254;2023-11-21T00:51:33;6.10;83.10
51215;DHT22;63849;47.546;19.254;2023-11-21T00:54:00;6.20;83.00
51215;DHT22;63849;47.546;19.254;2023-11-21T00:56:26;6.20;82.80
51215;DHT22;63849;47.546;19.254;2023-11-21T00:58:52;6.30;82.90
51215;DHT22;63849;47.546;19.254;2023-11-21T01:01:19;6.30;82.00
51215;DHT22;63849;47.546;19.254;2023-11-21T01:03:48;6.30;82.30
51215;DHT22;63849;47.546;19.254;2023-11-21T01:06:15;6.30;82.00
51215;DHT22;63849;47.546;19.254;2023-11-21T01:08:41;6.30;81.90
51215;DHT22;63849;47.546;19.254;2023-11-21T01:11:07;6.30;81.60
51215;DHT22;63849;47.546;19.254;2023-11-21T01:13:41;6.10;81.80
51215;DHT22;63849;47.546;19.254;2023-11-21T01:16:07;6.10;81.60
51215;DHT22;63849;47.546;19.254;2023-11-21T01:18:34;6.10;81.60
51215;DHT22;63849;47.546;19.254;2023-11-21T01:21:00;6.20;81.40
51215;DHT22;63849;47.546;19.254;2023-11-21T01:23:26;6.20;81.10
51215;DHT22;63849;47.546;19.254;2023-11-21T01:25:52;6.10;81.40
51215;DHT22;63849;47.546;19.254;2023-11-21T01:28:18;6.20;81.10
51215;DHT22;63849;47.546;19.254;2023-11-21T01:30:45;6.10;81.20
51215;DHT22;63849;47.546;19.254;2023-11-21T01:33:11;6.10;81.30
51215;DHT22;63849;47.546;19.254;2023-11-21T01:35:37;6.00;81.50
51215;DHT22;63849;47.546;19.254;2023-11-21T01:38:03;5.90;81.80
51215;DHT22;63849;47.546;19.254;2023-11-21T01:40:29;5.90;82.00
51215;DHT22;63849;47.546;19.254;2023-11-21T01:42:56;5.90;82.00
51215;DHT22;63849;47.546;19.254;2023-11-21T01:45:23;5.90;81.50
51215;DHT22;63849;47.546;19.254;2023-11-21T01:47:50;5.80;81.30
51215;DHT22;63849;47.546;19.254;2023-11-21T01:50:17;5.70;82.00
51215;DHT22;63849;47.546;19.254;2023-11-21T01:52:47;5.80;81.80
51215;DHT22;63849;47.546;19.254;2023-11-21T01:55:16;5.90;81.40
51215;DHT22;63849;47.546;19.254;2023-11-21T01:57:46;5.90;81.20
51215;DHT22;63849;47.546;19.254;2023-11-21T02:00:12;5.80;81.10
51215;DHT22;63849;47.546;19.254;2023-11-21T02:02:51;5.80;81.50
51215;DHT22;63849;47.546;19.254;2023-11-21T02:05:18;5.80;81.70
51215;DHT22;63849;47.546;19.254;2023-11-21T02:07:45;5.80;81.90
51215;DHT22;63849;47.546;19.254;2023-11-21T02:10:16;5.80;82.10
51215;DHT22;63849;47.546;19.254;2023-11-21T02:12:42;5.90;82.40
51215;DHT22;63849;47.546;19.254;2023-11-21T02:15:15;6.00;82.50
51215;DHT22;63849;47.546;19.254;2023-11-21T02:17:48;6.00;82.40
51215;DHT22;63849;47.546;19.254;2023-11-21T02:20:18;6.00;82.60
51215;DHT22;63849;47.546;19.254;2023-11-21T02:22:56;6.00;82.80
51215;DHT22;63849;47.546;19.254;2023-11-21T02:25:26;6.10;83.00
51215;DHT22;63849;47.546;19.254;2023-11-21T02:27:54;6.10;83.00
51215;DHT22;63849;47.546;19.254;2023-11-21T02:30:21;6.20;82.30
51215;DHT22;63849;47.546;19.254;2023-11-21T02:32:48;6.20;82.30
51215;DHT22;63849;47.546;19.254;2023-11-21T02:35:14;6.30;82.00
51215;DHT22;63849;47.546;19.254;2023-11-21T02:37:41;6.20;81.50
51215;DHT22;63849;47.546;19.254;2023-11-21T02:40:10;6.10;81.80
51215;DHT22;63849;47.546;19.254;2023-11-21T02:42:39;6.00;82.30
51215;DHT22;63849;47.546;19.254;2023-11-21T02:45:06;5.90;82.40
51215;DHT22;63849;47.546;19.254;2023-11-21T02:47:32;5.90;82.50
51215;DHT22;63849;47.546;19.254;2023-11-21T02:49:59;5.90;83.10
51215;DHT22;63849;47.546;19.254;2023-11-21T02:52:24;6.00;82.90
51215;DHT22;63849;47.546;19.254;2023-11-21T02:54:50;6.10;82.40
51215;DHT22;63849;47.546;19.254;2023-11-21T02:57:16;5.90;82.50
51215;DHT22;63849;47.546;19.254;2023-11-21T02:59:42;6.10;82.20
51215;DHT22;63849;47.546;19.254;2023-11-21T03:02:08;6.10;81.70
51215;DHT22;63849;47.546;19.254;2023-11-21T03:04:34;6.10;81.60
51215;DHT22;63849;47.546;19.254;2023-11-21T03:07:00;6.00;81.70
51215;DHT22;63849;47.546;19.254;2023-11-21T03:09:26;6.00;81.90
51215;DHT22;63849;47.546;19.254;2023-11-21T03:11:53;6.00;81.90
51215;DHT22;63849;47.546;19.254;2023-11-21T03:14:19;6.10;81.80
51215;DHT22;63849;47.546;19.254;2023-11-21T03:16:45;6.10;81.80
51215;DHT22;63849;47.546;19.254;2023-11-21T03:19:11;6.00;81.90
51215;DHT22;63849;47.546;19.254;2023-11-21T03:21:37;6.10;82.10
51215;DHT22;63849;47.546;19.254;2023-11-21T03:24:03;6.00;82.30
51215;DHT22;63849;47.546;19.254;2023-11-21T03:26:29;6.10;82.30
51215;DHT22;63849;47.546;19.254;2023-11-21T03:28:55;6.20;82.00
51215;DHT22;63849;47.546;19.254;2023-11-21T03:31:21;6.20;81.60
51215;DHT22;63849;47.546;19.254;2023-11-21T03:33:47;6.30;81.60
51215;DHT22;63849;47.546;19.254;2023-11-21T03:36:13;6.10;81.60
51215;DHT22;63849;47.546;19.254;2023-11-21T03:38:41;6.20;81.70
51215;DHT22;63849;47.546;19.254;2023-11-21T03:41:07;6.20;81.40
51215;DHT22;63849;47.546;19.254;2023-11-21T03:43:36;6.20;81.60
51215;DHT22;63849;47.546;19.254;2023-11-21T03:46:02;6.10;81.80
51215;DHT22;63849;47.546;19.254;2023-11-21T03:48:28;6.10;81.70
51215;DHT22;63849;47.546;19.254;2023-11-21T03:50:53;6.10;82.00
51215;DHT22;63849;47.546;19.254;2023-11-21T03:53:19;6.10;82.00
51215;DHT22;63849;47.546;19.254;2023-11-21T03:55:45;6.10;82.20
51215;DHT22;63849;47.546;19.254;2023-11-21T03:58:11;6.10;81.80
51215;DHT22;63849;47.546;19.254;2023-11-21T04:00:37;6.10;82.10
51215;DHT22;63849;47.546;19.254;2023-11-21T04:03:02;6.10;82.30
51215;DHT22;63849;47.546;19.254;2023-11-21T04:05:28;6.20;81.80
51215;DHT22;63849;47.546;19.254;2023-11-21T04:07:54;6.20;82.20
51215;DHT22;63849;47.546;19.254;2023-11-21T04:10:20;6.20;82.40
51215;DHT22;63849;47.546;19.254;2023-11-21T04:12:46;6.20;82.30
51215;DHT22;63849;47.546;19.254;2023-11-21T04:15:12;6.20;82.30
51215;DHT22;63849;47.546;19.254;2023-11-21T04:17:39;6.20;81.70
51215;DHT22;63849;47.546;19.254;2023-11-21T04:20:06;6.20;82.20
51215;DHT22;63849;47.546;19.254;2023-11-21T04:22:39;6.20;82.00
51215;DHT22;63849;47.546;19.254;2023-11-21T04:25:14;6.20;82.00
51215;DHT22;63849;47.546;19.254;2023-11-21T04:27:41;6.30;81.70
51215;DHT22;63849;47.546;19.254;2023-11-21T04:30:12;6.20;81.60
51215;DHT22;63849;47.546;19.254;2023-11-21T04:32:38;6.20;81.50
51215;DHT22;63849;47.546;19.254;2023-11-21T04:35:10;6.10;81.70
51215;DHT22;63849;47.546;19.254;2023-11-21T04:37:36;6.20;81.80
51215;DHT22;63849;47.546;19.254;2023-11-21T04:40:02;6.10;81.80
51215;DHT22;63849;47.546;19.254;2023-11-21T04:42:35;6.20;82.10
51215;DHT22;63849;47.546;19.254;2023-11-21T04:45:02;6.10;82.40
51215;DHT22;63849;47.546;19.254;2023-11-21T04:47:30;6.10;82.40
51215;DHT22;63849;47.546;19.254;2023-11-21T04:49:56;6.10;82.40
51215;DHT22;63849;47.546;19.254;2023-11-21T04:52:21;6.10;82.70
51215;DHT22;63849;47.546;19.254;2023-11-21T04:54:47;6.20;83.00
51215;DHT22;63849;47.546;19.254;2023-11-21T04:57:13;6.30;82.70
51215;DHT22;63849;47.546;19.254;2023-11-21T04:59:39;6.30;82.30
51215;DHT22;63849;47.546;19.254;2023-11-21T05:02:05;6.20;82.70
51215;DHT22;63849;47.546;19.254;2023-11-21T05:04:31;6.30;82.70
51215;DHT22;63849;47.546;19.254;2023-11-21T05:06:56;6.40;82.30
51215;DHT22;63849;47.546;19.254;2023-11-21T05:09:22;6.30;82.60
51215;DHT22;63849;47.546;19.254;2023-11-21T05:11:48;6.40;82.50
51215;DHT22;63849;47.546;19.254;2023-11-21T05:14:14;6.30;82.20
51215;DHT22;63849;47.546;19.254;2023-11-21T05:16:39;6.30;82.60
51215;DHT22;63849;47.546;19.254;2023-11-21T05:19:05;6.40;82.50
51215;DHT22;63849;47.546;19.254;2023-11-21T05:21:32;6.40;82.40
51215;DHT22;63849;47.546;19.254;2023-11-21T05:23:58;6.40;82.60
51215;DHT22;63849;47.546;19.254;2023-11-21T05:26:23;6.30;82.60
51215;DHT22;63849;47.546;19.254;2023-11-21T05:28:49;6.50;82.50
51215;DHT22;63849;47.546;19.254;2023-11-21T05:31:15;6.40;82.90
51215;DHT22;63849;47.546;19.254;2023-11-21T05:33:41;6.40;82.90
51215;DHT22;63849;47.546;19.254;2023-11-21T05:36:07;6.50;83.10
51215;DHT22;63849;47.546;19.254;2023-11-21T05:38:35;6.50;83.40
51215;DHT22;63849;47.546;19.254;2023-11-21T05:41:02;6.50;83.60
51215;DHT22;63849;47.546;19.254;2023-11-21T05:43:28;6.60;83.80
51215;DHT22;63849;47.546;19.254;2023-11-21T05:45:56;6.70;83.80
51215;DHT22;63849;47.546;19.254;2023-11-21T05:48:22;6.70;83.80
51215;DHT22;63849;47.546;19.254;2023-11-21T05:50:48;6.70;83.80
51215;DHT22;63849;47.546;19.254;2023-11-21T05:53:15;6.80;83.80
51215;DHT22;63849;47.546;19.254;2023-11-21T05:55:41;6.80;83.70
51215;DHT22;63849;47.546;19.254;2023-11-21T05:58:07;6.80;83.80
51215;DHT22;63849;47.546;19.254;2023-11-21T06:00:34;6.80;83.80
51215;DHT22;63849;47.546;19.254;2023-11-21T06:03:00;6.80;83.70
51215;DHT22;63849;47.546;19.254;2023-11-21T06:05:26;6.80;83.50
51215;DHT22;63849;47.546;19.254;2023-11-21T06:07:53;6.80;83.50
51215;DHT22;63849;47.546;19.254;2023-11-21T06:10:20;6.80;83.30
51215;DHT22;63849;47.546;19.254;2023-11-21T06:12:46;6.80;83.40
51215;DHT22;63849;47.546;19.254;2023-11-21T06:15:13;6.80;83.40
51215;DHT22;63849;47.546;19.254;2023-11-21T06:17:42;6.80;83.40
51215;DHT22;63849;47.546;19.254;2023-11-21T06:20:10;6.80;83.70
51215;DHT22;63849;47.546;19.254;2023-11-21T06:22:41;6.60;84.30
51215;DHT22;63849;47.546;19.254;2023-11-21T06:25:07;6.70;84.60
51215;DHT22;63849;47.546;19.254;2023-11-21T06:27:37;6.80;84.50
51215;DHT22;63849;47.546;19.254;2023-11-21T06:30:03;6.80;84.50
51215;DHT22;63849;47.546;19.254;2023-11-21T06:32:30;6.80;84.50
51215;DHT22;63849;47.546;19.254;2023-11-21T06:34:56;6.90;84.50
51215;DHT22;63849;47.546;19.254;2023-11-21T06:37:26;6.90;84.20
51215;DHT22;63849;47.546;19.254;2023-11-21T06:39:52;7.00;84.10
51215;DHT22;63849;47.546;19.254;2023-11-21T06:42:18;7.10;83.70
51215;DHT22;63849;47.546;19.254;2023-11-21T06:44:47;6.90;83.70
51215;DHT22;63849;47.546;19.254;2023-11-21T06:47:14;6.80;84.40
51215;DHT22;63849;47.546;19.254;2023-11-21T06:49:41;7.00;83.80
51215;DHT22;63849;47.546;19.254;2023-11-21T06:52:06;7.00;84.10
51215;DHT22;63849;47.546;19.254;2023-11-21T06:54:34;6.90;84.30
51215;DHT22;63849;47.546;19.254;2023-11-21T06:57:00;6.90;84.10
51215;DHT22;63849;47.546;19.254;2023-11-21T06:59:28;7.00;84.20
51215;DHT22;63849;47.546;19.254;2023-11-21T07:01:54;7.00;84.30
51215;DHT22;63849;47.546;19.254;2023-11-21T07:04:20;6.90;84.40
51215;DHT22;63849;47.546;19.254;2023-11-21T07:06:46;7.10;84.20
51215;DHT22;63849;47.546;19.254;2023-11-21T07:09:12;7.10;84.00
51215;DHT22;63849;47.546;19.254;2023-11-21T07:11:38;7.10;84.20
51215;DHT22;63849;47.546;19.254;2023-11-21T07:14:04;7.10;84.20
51215;DHT22;63849;47.546;19.254;2023-11-21T07:16:37;7.20;83.90
51215;DHT22;63849;47.546;19.254;2023-11-21T07:19:04;7.30;83.80
51215;DHT22;63849;47.546;19.254;2023-11-21T07:21:32;7.20;83.70
51215;DHT22;63849;47.546;19.254;2023-11-21T07:23:59;7.30;83.80
51215;DHT22;63849;47.546;19.254;2023-11-21T07:26:26;7.30;83.80
51215;DHT22;63849;47.546;19.254;2023-11-21T07:28:53;7.30;83.90
51215;DHT22;63849;47.546;19.254;2023-11-21T07:31:18;7.30;84.00
51215;DHT22;63849;47.546;19.254;2023-11-21T07:33:45;7.40;83.90
51215;DHT22;63849;47.546;19.254;2023-11-21T07:36:13;7.40;83.70
51215;DHT22;63849;47.546;19.254;2023-11-21T07:38:39;7.50;83.60
51215;DHT22;63849;47.546;19.254;2023-11-21T07:41:05;7.40;83.70
51215;DHT22;63849;47.546;19.254;2023-11-21T07:43:36;7.50;83.80
51215;DHT22;63849;47.546;19.254;2023-11-21T07:46:03;7.40;83.80
51215;DHT22;63849;47.546;19.254;2023-11-21T07:48:30;7.30;83.60
51215;DHT22;63849;47.546;19.254;2023-11-21T07:50:56;7.20;83.90
51215;DHT22;63849;47.546;19.254;2023-11-21T07:53:21;7.30;83.80
51215;DHT22;63849;47.546;19.254;2023-11-21T07:55:47;7.40;83.70
51215;DHT22;63849;47.546;19.254;2023-11-21T07:58:13;7.40;83.30
51215;DHT22;63849;47.546;19.254;2023-11-21T08:00:39;7.40;83.50
51215;DHT22;63849;47.546;19.254;2023-11-21T08:03:05;7.50;83.40
51215;DHT22;63849;47.546;19.254;2023-11-21T08:05:33;7.50;83.60
51215;DHT22;63849;47.546;19.254;2023-11-21T08:08:00;7.60;83.80
51215;DHT22;63849;47.546;19.254;2023-11-21T08:10:25;7.60;83.80
51215;DHT22;63849;47.546;19.254;2023-11-21T08:12:51;7.70;84.10
51215;DHT22;63849;47.546;19.254;2023-11-21T08:15:19;7.60;84.40
51215;DHT22;63849;47.546;19.254;2023-11-21T08:17:46;7.70;84.50
51215;DHT22;63849;47.546;19.254;2023-11-21T08:20:12;7.80;84.20
51215;DHT22;63849;47.546;19.254;2023-11-21T08:22:39;7.80;84.10
51215;DHT22;63849;47.546;19.254;2023-11-21T08:25:06;7.80;83.90
51215;DHT22;63849;47.546;19.254;2023-11-21T08:27:34;7.90;83.80
51215;DHT22;63849;47.546;19.254;2023-11-21T08:30:01;7.90;83.70
51215;DHT22;63849;47.546;19.254;2023-11-21T08:32:27;7.90;83.90
51215;DHT22;63849;47.546;19.254;2023-11-21T08:34:52;8.00;83.90
51215;DHT22;63849;47.546;19.254;2023-11-21T08:37:18;8.00;83.90
51215;DHT22;63849;47.546;19.254;2023-11-21T08:39:44;8.10;83.80
51215;DHT22;63849;47.546;19.254;2023-11-21T08:42:10;8.10;83.80
51215;DHT22;63849;47.546;19.254;2023-11-21T08:44:36;8.20;84.00
51215;DHT22;63849;47.546;19.254;2023-11-21T08:47:02;8.20;84.00
51215;DHT22;63849;47.546;19.254;2023-11-21T08:49:30;8.20;84.20
51215;DHT22;63849;47.546;19.254;2023-11-21T08:51:56;8.30;84.20
51215;DHT22;63849;47.546;19.254;2023-11-21T08:54:23;8.30;83.60
51215;DHT22;63849;47.546;19.254;2023-11-21T08:56:48;8.40;83.70
51215;DHT22;63849;47.546;19.254;2023-11-21T08:59:15;8.50;83.80
51215;DHT22;63849;47.546;19.254;2023-11-21T09:01:41;8.50;83.60
51215;DHT22;63849;47.546;19.254;2023-11-21T09:04:07;8.60;83.80
51215;DHT22;63849;47.546;19.254;2023-11-21T09:06:33;8.50;84.10
51215;DHT22;63849;47.546;19.254;2023-11-21T09:08:59;8.50;84.00
51215;DHT22;63849;47.546;19.254;2023-11-21T09:11:25;8.60;83.90
51215;DHT22;63849;47.546;19.254;2023-11-21T09:13:52;8.60;83.60
51215;DHT22;63849;47.546;19.254;2023-11-21T09:16:18;8.60;83.30
51215;DHT22;63849;47.546;19.254;2023-11-21T09:18:45;8.60;83.20
51215;DHT22;63849;47.546;19.254;2023-11-21T09:21:10;8.60;83.00
51215;DHT22;63849;47.546;19.254;2023-11-21T09:23:36;8.70;82.80
51215;DHT22;63849;47.546;19.254;2023-11-21T09:26:02;8.80;82.70
51215;DHT22;63849;47.546;19.254;2023-11-21T09:28:27;8.80;82.60
51215;DHT22;63849;47.546;19.254;2023-11-21T09:30:53;8.80;82.30
51215;DHT22;63849;47.546;19.254;2023-11-21T09:33:19;8.80;82.10
51215;DHT22;63849;47.546;19.254;2023-11-21T09:35:47;8.80;82.70
51215;DHT22;63849;47.546;19.254;2023-11-21T09:38:14;8.90;82.80
51215;DHT22;63849;47.546;19.254;2023-11-21T09:40:39;8.80;82.50
51215;DHT22;63849;47.546;19.254;2023-11-21T09:43:09;8.80;82.20
51215;DHT22;63849;47.546;19.254;2023-11-21T09:45:50;8.80;82.40
51215;DHT22;63849;47.546;19.254;2023-11-21T09:48:20;8.80;82.40
51215;DHT22;63849;47.546;19.254;2023-11-21T09:50:48;8.90;82.40
51215;DHT22;63849;47.546;19.254;2023-11-21T09:55:43;9.00;82.00
51215;DHT22;63849;47.546;19.254;2023-11-21T09:58:10;9.00;82.10
51215;DHT22;63849;47.546;19.254;2023-11-21T10:00:41;9.10;82.00
51215;DHT22;63849;47.546;19.254;2023-11-21T10:03:07;9.10;82.00
51215;DHT22;63849;47.546;19.254;2023-11-21T10:05:33;9.10;82.30
51215;DHT22;63849;47.546;19.254;2023-11-21T10:08:00;9.10;81.80
51215;DHT22;63849;47.546;19.254;2023-11-21T10:10:27;9.20;81.60
51215;DHT22;63849;47.546;19.254;2023-11-21T10:13:01;9.10;81.70
51215;DHT22;63849;47.546;19.254;2023-11-21T10:15:29;9.10;82.10
51215;DHT22;63849;47.546;19.254;2023-11-21T10:17:56;9.20;81.90
51215;DHT22;63849;47.546;19.254;2023-11-21T10:20:23;9.20;81.80
51215;DHT22;63849;47.546;19.254;2023-11-21T10:22:50;9.20;81.80
51215;DHT22;63849;47.546;19.254;2023-11-21T10:25:16;9.20;81.80
51215;DHT22;63849;47.546;19.254;2023-11-21T10:27:47;9.30;81.90
51215;DHT22;63849;47.546;19.254;2023-11-21T10:30:15;9.30;82.00
51215;DHT22;63849;47.546;19.254;2023-11-21T10:32:44;9.20;81.70
51215;DHT22;63849;47.546;19.254;2023-11-21T10:35:10;9.10;82.10
51215;DHT22;63849;47.546;19.254;2023-11-21T10:37:39;9.10;82.10
51215;DHT22;63849;47.546;19.254;2023-11-21T10:40:12;9.20;81.90
51215;DHT22;63849;47.546;19.254;2023-11-21T10:42:41;9.20;81.90
51215;DHT22;63849;47.546;19.254;2023-11-21T10:45:08;9.20;81.90
51215;DHT22;63849;47.546;19.254;2023-11-21T10:47:44;9.30;82.20
51215;DHT22;63849;47.546;19.254;2023-11-21T10:50:10;9.30;82.20
51215;DHT22;63849;47.546;19.254;2023-11-21T10:52:42;9.30;82.30
51215;DHT22;63849;47.546;19.254;2023-11-21T10:55:18;9.30;82.30
51215;DHT22;63849;47.546;19.254;2023-11-21T10:57:52;9.30;82.50
51215;DHT22;63849;47.546;19.254;2023-11-21T11:00:19;9.30;82.50
51215;DHT22;63849;47.546;19.254;2023-11-21T11:02:51;9.40;82.50
51215;DHT22;63849;47.546;19.254;2023-11-21T11:05:20;9.30;82.40
51215;DHT22;63849;47.546;19.254;2023-11-21T11:07:48;9.40;82.30
51215;DHT22;63849;47.546;19.254;2023-11-21T11:10:20;9.40;82.30
51215;DHT22;63849;47.546;19.254;2023-11-21T11:12:48;9.50;82.50
51215;DHT22;63849;47.546;19.254;2023-11-21T11:15:16;9.50;81.90
51215;DHT22;63849;47.546;19.254;2023-11-21T11:17:42;9.50;81.20
51215;DHT22;63849;47.546;19.254;2023-11-21T11:20:13;9.50;81.40
51215;DHT22;63849;47.546;19.254;2023-11-21T11:22:48;9.50;81.20
51215;DHT22;63849;47.546;19.254;2023-11-21T11:28:06;9.50;81.30
51215;DHT22;63849;47.546;19.254;2023-11-21T11:33:43;9.50;81.50
51215;DHT22;63849;47.546;19.254;2023-11-21T11:38:59;9.50;81.70
51215;DHT22;63849;47.546;19.254;2023-11-21T11:41:30;9.50;81.70
51215;DHT22;63849;47.546;19.254;2023-11-21T11:43:58;9.50;81.90
51215;DHT22;63849;47.546;19.254;2023-11-21T11:46:44;9.50;82.00
51215;DHT22;63849;47.546;19.254;2023-11-21T11:49:27;9.50;82.20
51215;DHT22;63849;47.546;19.254;2023-11-21T11:54:56;9.50;82.70
51215;DHT22;63849;47.546;19.254;2023-11-21T11:57:29;9.50;82.10
51215;DHT22;63849;47.546;19.254;2023-11-21T12:00:11;9.60;82.10
51215;DHT22;63849;47.546;19.254;2023-11-21T12:02:40;9.60;82.10
51215;DHT22;63849;47.546;19.254;2023-11-21T12:05:15;9.70;81.90
51215;DHT22;63849;47.546;19.254;2023-11-21T12:07:49;9.70;81.80
51215;DHT22;63849;47.546;19.254;2023-11-21T12:10:17;9.70;81.90
51215;DHT22;63849;47.546;19.254;2023-11-21T12:12:51;9.60;81.30
51215;DHT22;63849;47.546;19.254;2023-11-21T12:15:21;9.60;81.60
51215;DHT22;63849;47.546;19.254;2023-11-21T12:17:48;9.60;81.80
51215;DHT22;63849;47.546;19.254;2023-11-21T12:20:18;9.60;82.00
51215;DHT22;63849;47.546;19.254;2023-11-21T12:22:46;9.60;82.10
51215;DHT22;63849;47.546;19.254;2023-11-21T12:25:19;9.60;81.90
51215;DHT22;63849;47.546;19.254;2023-11-21T12:27:49;9.60;81.80
51215;DHT22;63849;47.546;19.254;2023-11-21T12:30:17;9.60;81.80
51215;DHT22;63849;47.546;19.254;2023-11-21T12:32:52;9.60;82.00
51215;DHT22;63849;47.546;19.254;2023-11-21T12:35:19;9.60;82.00
51215;DHT22;63849;47.546;19.254;2023-11-21T12:37:45;9.70;81.80
51215;DHT22;63849;47.546;19.254;2023-11-21T12:40:13;9.60;81.70
51215;DHT22;63849;47.546;19.254;2023-11-21T12:42:41;9.70;81.60
51215;DHT22;63849;47.546;19.254;2023-11-21T12:45:20;9.70;81.60
51215;DHT22;63849;47.546;19.254;2023-11-21T12:47:47;9.70;81.60
51215;DHT22;63849;47.546;19.254;2023-11-21T12:50:23;9.60;81.10
51215;DHT22;63849;47.546;19.254;2023-11-21T12:52:50;9.60;81.10
51215;DHT22;63849;47.546;19.254;2023-11-21T12:55:20;9.60;80.80
51215;DHT22;63849;47.546;19.254;2023-11-21T12:57:54;9.60;80.90
51215;DHT22;63849;47.546;19.254;2023-11-21T13:00:27;9.50;81.20
51215;DHT22;63849;47.546;19.254;2023-11-21T13:02:57;9.60;81.50
51215;DHT22;63849;47.546;19.254;2023-11-21T13:05:42;9.60;81.60
51215;DHT22;63849;47.546;19.254;2023-11-21T13:08:11;9.60;81.50
51215;DHT22;63849;47.546;19.254;2023-11-21T13:10:44;9.70;81.50
51215;DHT22;63849;47.546;19.254;2023-11-21T13:13:13;9.60;81.30
51215;DHT22;63849;47.546;19.254;2023-11-21T13:15:50;9.60;81.50
51215;DHT22;63849;47.546;19.254;2023-11-21T13:18:16;9.70;81.30
51215;DHT22;63849;47.546;19.254;2023-11-21T13:20:43;9.60;81.50
51215;DHT22;63849;47.546;19.254;2023-11-21T13:23:10;9.60;81.50
51215;DHT22;63849;47.546;19.254;2023-11-21T13:25:40;9.60;81.40
51215;DHT22;63849;47.546;19.254;2023-11-21T13:28:10;9.50;81.70
51215;DHT22;63849;47.546;19.254;2023-11-21T13:30:36;9.60;81.80
51215;DHT22;63849;47.546;19.254;2023-11-21T13:33:03;9.60;81.70
51215;DHT22;63849;47.546;19.254;2023-11-21T13:35:33;9.60;81.30
51215;DHT22;63849;47.546;19.254;2023-11-21T13:38:09;9.60;81.30
51215;DHT22;63849;47.546;19.254;2023-11-21T13:40:37;9.60;81.70
51215;DHT22;63849;47.546;19.254;2023-11-21T13:43:13;9.50;81.90
51215;DHT22;63849;47.546;19.254;2023-11-21T13:45:43;9.60;82.00
51215;DHT22;63849;47.546;19.254;2023-11-21T13:48:10;9.50;81.90
51215;DHT22;63849;47.546;19.254;2023-11-21T13:50:37;9.60;81.90
51215;DHT22;63849;47.546;19.254;2023-11-21T13:53:03;9.50;82.10
51215;DHT22;63849;47.546;19.254;2023-11-21T13:55:51;9.40;82.20
51215;DHT22;63849;47.546;19.254;2023-11-21T13:58:23;9.50;82.00
51215;DHT22;63849;47.546;19.254;2023-11-21T14:01:00;9.50;82.10
51215;DHT22;63849;47.546;19.254;2023-11-21T14:03:27;9.50;81.80
51215;DHT22;63849;47.546;19.254;2023-11-21T14:06:05;9.50;81.80
51215;DHT22;63849;47.546;19.254;2023-11-21T14:08:40;9.50;81.80
51215;DHT22;63849;47.546;19.254;2023-11-21T14:11:07;9.50;81.90
51215;DHT22;63849;47.546;19.254;2023-11-21T14:13:33;9.40;81.80
51215;DHT22;63849;47.546;19.254;2023-11-21T14:15:59;9.40;81.90
51215;DHT22;63849;47.546;19.254;2023-11-21T14:18:27;9.40;82.00
51215;DHT22;63849;47.546;19.254;2023-11-21T14:20:59;9.30;82.00
51215;DHT22;63849;47.546;19.254;2023-11-21T14:23:25;9.30;82.10
51215;DHT22;63849;47.546;19.254;2023-11-21T14:25:51;9.30;82.20
51215;DHT22;63849;47.546;19.254;2023-11-21T14:28:17;9.30;82.30
51215;DHT22;63849;47.546;19.254;2023-11-21T14:30:45;9.30;82.40
51215;DHT22;63849;47.546;19.254;2023-11-21T14:33:12;9.30;82.50
51215;DHT22;63849;47.546;19.254;2023-11-21T14:35:38;9.20;82.70
51215;DHT22;63849;47.546;19.254;2023-11-21T14:38:04;9.20;82.70
51215;DHT22;63849;47.546;19.254;2023-11-21T14:40:33;9.20;82.80
51215;DHT22;63849;47.546;19.254;2023-11-21T14:43:04;9.10;83.00
51215;DHT22;63849;47.546;19.254;2023-11-21T14:45:33;9.00;83.10
51215;DHT22;63849;47.546;19.254;2023-11-21T14:47:59;8.90;83.20
51215;DHT22;63849;47.546;19.254;2023-11-21T14:50:35;8.90;83.30
51215;DHT22;63849;47.546;19.254;2023-11-21T14:53:07;8.80;83.30
51215;DHT22;63849;47.546;19.254;2023-11-21T14:55:34;8.80;83.30
51215;DHT22;63849;47.546;19.254;2023-11-21T14:58:15;8.80;83.40
51215;DHT22;63849;47.546;19.254;2023-11-21T15:00:48;8.80;83.50
51215;DHT22;63849;47.546;19.254;2023-11-21T15:03:16;8.80;83.60
51215;DHT22;63849;47.546;19.254;2023-11-21T15:06:08;8.60;83.80
51215;DHT22;63849;47.546;19.254;2023-11-21T15:08:57;8.60;83.80
51215;DHT22;63849;47.546;19.254;2023-11-21T15:11:43;8.60;83.80
51215;DHT22;63849;47.546;19.254;2023-11-21T15:14:09;8.60;83.80
51215;DHT22;63849;47.546;19.254;2023-11-21T15:16:35;8.50;83.90
51215;DHT22;63849;47.546;19.254;2023-11-21T15:19:15;8.50;83.80
51215;DHT22;63849;47.546;19.254;2023-11-21T15:21:44;8.50;83.70
51215;DHT22;63849;47.546;19.254;2023-11-21T15:24:11;8.50;83.70
51215;DHT22;63849;47.546;19.254;2023-11-21T15:26:37;8.40;83.80
51215;DHT22;63849;47.546;19.254;2023-11-21T15:29:04;8.40;83.70
51215;DHT22;63849;47.546;19.254;2023-11-21T15:31:30;8.30;83.90
51215;DHT22;63849;47.546;19.254;2023-11-21T15:33:56;8.30;83.90
51215;DHT22;63849;47.546;19.254;2023-11-21T15:36:26;8.30;83.70
51215;DHT22;63849;47.546;19.254;2023-11-21T15:38:52;8.20;83.70
51215;DHT22;63849;47.546;19.254;2023-11-21T15:41:19;8.20;83.70
51215;DHT22;63849;47.546;19.254;2023-11-21T15:43:45;8.20;83.60
51215;DHT22;63849;47.546;19.254;2023-11-21T15:46:10;8.20;83.50
51215;DHT22;63849;47.546;19.254;2023-11-21T15:48:37;8.10;83.70